sensor_id;sensor_type;location;lat;lon;timestamp;P1;durP1;ratioP1;P2;durP2;ratioP2
59587;SDS011;45412;54.472;18.464;2023-05-10T00:02:49;9.50;;;3.60;;
59587;SDS011;45412;54.472;18.464;2023-05-10T00:05:38;9.60;;;3.70;;
59587;SDS011;45412;54.472;18.464;2023-05-10T00:08:27;9.50;;;3.90;;
59587;SDS011;45412;54.472;18.464;2023-05-10T00:11:16;7.50;;;3.50;;
59587;SDS011;45412;54.472;18.464;2023-05-10T00:14:06;8.40;;;3.50;;
59587;SDS011;45412;54.472;18.464;2023-05-10T00:16:58;7.80;;;3.50;;
59587;SDS011;45412;54.472;18.464;2023-05-10T00:19:52;8.60;;;3.30;;
59587;SDS011;45412;54.472;18.464;2023-05-10T00:22:43;8.30;;;3.20;;
59587;SDS011;45412;54.472;18.464;2023-05-10T00:25:33;7.80;;;3.40;;
59587;SDS011;45412;54.472;18.464;2023-05-10T00:28:21;8.10;;;3.30;;
59587;SDS011;45412;54.472;18.464;2023-05-10T00:31:10;10.40;;;3.50;;
59587;SDS011;45412;54.472;18.464;2023-05-10T00:33:58;8.60;;;3.40;;
59587;SDS011;45412;54.472;18.464;2023-05-10T00:36:47;10.80;;;3.20;;
59587;SDS011;45412;54.472;18.464;2023-05-10T00:39:35;8.70;;;3.60;;
59587;SDS011;45412;54.472;18.464;2023-05-10T00:42:24;7.90;;;3.20;;
59587;SDS011;45412;54.472;18.464;2023-05-10T00:45:14;7.60;;;3.30;;
59587;SDS011;45412;54.472;18.464;2023-05-10T00:48:02;7.80;;;3.40;;
59587;SDS011;45412;54.472;18.464;2023-05-10T00:50:51;9.40;;;3.60;;
59587;SDS011;45412;54.472;18.464;2023-05-10T00:53:39;8.40;;;3.40;;
59587;SDS011;45412;54.472;18.464;2023-05-10T00:56:29;8.40;;;3.10;;
59587;SDS011;45412;54.472;18.464;2023-05-10T00:59:17;9.10;;;3.50;;
59587;SDS011;45412;54.472;18.464;2023-05-10T01:02:06;9.20;;;3.90;;
59587;SDS011;45412;54.472;18.464;2023-05-10T01:04:54;9.30;;;3.70;;
59587;SDS011;45412;54.472;18.464;2023-05-10T01:07:43;9.70;;;3.50;;
59587;SDS011;45412;54.472;18.464;2023-05-10T01:10:32;8.00;;;3.50;;
59587;SDS011;45412;54.472;18.464;2023-05-10T01:13:37;8.60;;;3.60;;
59587;SDS011;45412;54.472;18.464;2023-05-10T01:16:27;7.90;;;3.90;;
59587;SDS011;45412;54.472;18.464;2023-05-10T01:19:23;9.50;;;3.60;;
59587;SDS011;45412;54.472;18.464;2023-05-10T01:26:13;9.00;;;3.30;;
59587;SDS011;45412;54.472;18.464;2023-05-10T01:36:42;9.90;;;3.30;;
59587;SDS011;45412;54.472;18.464;2023-05-10T01:43:57;9.50;;;4.10;;
59587;SDS011;45412;54.472;18.464;2023-05-10T01:47:04;8.00;;;3.70;;
59587;SDS011;45412;54.472;18.464;2023-05-10T01:50:06;7.80;;;3.70;;
59587;SDS011;45412;54.472;18.464;2023-05-10T01:53:02;9.00;;;3.90;;
59587;SDS011;45412;54.472;18.464;2023-05-10T01:55:53;9.20;;;4.10;;
59587;SDS011;45412;54.472;18.464;2023-05-10T01:58:44;9.10;;;3.90;;
59587;SDS011;45412;54.472;18.464;2023-05-10T02:01:36;10.40;;;3.80;;
59587;SDS011;45412;54.472;18.464;2023-05-10T02:04:26;10.40;;;3.90;;
59587;SDS011;45412;54.472;18.464;2023-05-10T02:07:15;7.90;;;3.60;;
59587;SDS011;45412;54.472;18.464;2023-05-10T02:10:07;8.40;;;3.60;;
59587;SDS011;45412;54.472;18.464;2023-05-10T02:12:58;8.80;;;4.00;;
59587;SDS011;45412;54.472;18.464;2023-05-10T02:15:48;12.50;;;4.40;;
59587;SDS011;45412;54.472;18.464;2023-05-10T02:18:37;10.60;;;4.00;;
59587;SDS011;45412;54.472;18.464;2023-05-10T02:21:29;8.50;;;3.90;;
59587;SDS011;45412;54.472;18.464;2023-05-10T02:24:20;8.60;;;3.60;;
59587;SDS011;45412;54.472;18.464;2023-05-10T02:27:11;10.40;;;4.00;;
59587;SDS011;45412;54.472;18.464;2023-05-10T02:30:02;10.30;;;3.80;;
59587;SDS011;45412;54.472;18.464;2023-05-10T02:32:52;9.30;;;4.20;;
59587;SDS011;45412;54.472;18.464;2023-05-10T02:35:41;8.00;;;3.60;;
59587;SDS011;45412;54.472;18.464;2023-05-10T02:38:30;8.10;;;3.70;;
59587;SDS011;45412;54.472;18.464;2023-05-10T02:41:21;10.50;;;4.00;;
59587;SDS011;45412;54.472;18.464;2023-05-10T02:44:12;7.70;;;3.90;;
59587;SDS011;45412;54.472;18.464;2023-05-10T02:47:03;9.60;;;3.50;;
59587;SDS011;45412;54.472;18.464;2023-05-10T02:49:51;11.00;;;4.00;;
59587;SDS011;45412;54.472;18.464;2023-05-10T02:52:44;7.60;;;4.00;;
59587;SDS011;45412;54.472;18.464;2023-05-10T02:55:37;8.30;;;3.80;;
59587;SDS011;45412;54.472;18.464;2023-05-10T02:58:28;9.50;;;4.20;;
59587;SDS011;45412;54.472;18.464;2023-05-10T03:01:16;9.60;;;4.10;;
59587;SDS011;45412;54.472;18.464;2023-05-10T03:04:05;9.10;;;3.90;;
59587;SDS011;45412;54.472;18.464;2023-05-10T03:06:55;9.50;;;4.00;;
59587;SDS011;45412;54.472;18.464;2023-05-10T03:09:50;8.90;;;3.90;;
59587;SDS011;45412;54.472;18.464;2023-05-10T03:16:08;9.00;;;4.50;;
59587;SDS011;45412;54.472;18.464;2023-05-10T03:19:11;10.30;;;4.10;;
59587;SDS011;45412;54.472;18.464;2023-05-10T03:22:08;9.60;;;4.20;;
59587;SDS011;45412;54.472;18.464;2023-05-10T03:24:59;8.80;;;4.30;;
59587;SDS011;45412;54.472;18.464;2023-05-10T03:27:54;9.20;;;4.20;;
59587;SDS011;45412;54.472;18.464;2023-05-10T03:30:43;8.40;;;3.90;;
59587;SDS011;45412;54.472;18.464;2023-05-10T03:33:33;8.50;;;3.60;;
59587;SDS011;45412;54.472;18.464;2023-05-10T03:36:22;14.10;;;4.20;;
59587;SDS011;45412;54.472;18.464;2023-05-10T03:39:10;11.10;;;3.70;;
59587;SDS011;45412;54.472;18.464;2023-05-10T03:41:59;11.20;;;4.20;;
59587;SDS011;45412;54.472;18.464;2023-05-10T03:44:47;8.80;;;4.30;;
59587;SDS011;45412;54.472;18.464;2023-05-10T03:47:37;9.50;;;3.70;;
59587;SDS011;45412;54.472;18.464;2023-05-10T03:50:26;11.50;;;4.00;;
59587;SDS011;45412;54.472;18.464;2023-05-10T03:53:15;8.70;;;3.70;;
59587;SDS011;45412;54.472;18.464;2023-05-10T03:56:05;10.00;;;4.50;;
59587;SDS011;45412;54.472;18.464;2023-05-10T03:58:57;10.60;;;4.50;;
59587;SDS011;45412;54.472;18.464;2023-05-10T04:01:45;9.00;;;4.10;;
59587;SDS011;45412;54.472;18.464;2023-05-10T04:04:34;9.60;;;4.30;;
59587;SDS011;45412;54.472;18.464;2023-05-10T04:07:25;10.10;;;4.00;;
59587;SDS011;45412;54.472;18.464;2023-05-10T04:10:13;12.90;;;4.90;;
59587;SDS011;45412;54.472;18.464;2023-05-10T04:13:02;10.90;;;5.90;;
59587;SDS011;45412;54.472;18.464;2023-05-10T04:15:51;10.30;;;4.40;;
59587;SDS011;45412;54.472;18.464;2023-05-10T04:18:38;10.10;;;4.10;;
59587;SDS011;45412;54.472;18.464;2023-05-10T04:21:28;8.80;;;3.80;;
59587;SDS011;45412;54.472;18.464;2023-05-10T04:24:16;8.70;;;3.90;;
59587;SDS011;45412;54.472;18.464;2023-05-10T04:27:05;9.40;;;4.10;;
59587;SDS011;45412;54.472;18.464;2023-05-10T04:29:53;9.70;;;4.10;;
59587;SDS011;45412;54.472;18.464;2023-05-10T04:32:41;9.70;;;4.00;;
59587;SDS011;45412;54.472;18.464;2023-05-10T04:35:30;9.70;;;3.90;;
59587;SDS011;45412;54.472;18.464;2023-05-10T04:38:19;8.60;;;4.10;;
59587;SDS011;45412;54.472;18.464;2023-05-10T04:41:08;11.90;;;4.10;;
59587;SDS011;45412;54.472;18.464;2023-05-10T04:43:58;10.20;;;3.80;;
59587;SDS011;45412;54.472;18.464;2023-05-10T04:46:46;9.30;;;3.60;;
59587;SDS011;45412;54.472;18.464;2023-05-10T04:49:34;9.60;;;4.20;;
59587;SDS011;45412;54.472;18.464;2023-05-10T04:52:24;12.10;;;4.30;;
59587;SDS011;45412;54.472;18.464;2023-05-10T04:55:14;9.40;;;3.90;;
59587;SDS011;45412;54.472;18.464;2023-05-10T04:58:05;12.10;;;4.10;;
59587;SDS011;45412;54.472;18.464;2023-05-10T05:00:54;9.20;;;3.80;;
59587;SDS011;45412;54.472;18.464;2023-05-10T05:03:44;8.90;;;3.90;;
59587;SDS011;45412;54.472;18.464;2023-05-10T05:06:33;13.00;;;4.20;;
59587;SDS011;45412;54.472;18.464;2023-05-10T05:09:21;9.60;;;4.60;;
59587;SDS011;45412;54.472;18.464;2023-05-10T05:12:10;9.40;;;3.80;;
59587;SDS011;45412;54.472;18.464;2023-05-10T05:15:02;9.00;;;3.90;;
59587;SDS011;45412;54.472;18.464;2023-05-10T05:17:56;8.50;;;3.90;;
59587;SDS011;45412;54.472;18.464;2023-05-10T05:20:44;9.70;;;3.80;;
59587;SDS011;45412;54.472;18.464;2023-05-10T05:23:33;9.20;;;4.30;;
59587;SDS011;45412;54.472;18.464;2023-05-10T05:26:22;7.80;;;3.40;;
59587;SDS011;45412;54.472;18.464;2023-05-10T05:29:10;8.80;;;3.90;;
59587;SDS011;45412;54.472;18.464;2023-05-10T05:32:02;8.30;;;4.00;;
59587;SDS011;45412;54.472;18.464;2023-05-10T05:34:52;10.20;;;3.50;;
59587;SDS011;45412;54.472;18.464;2023-05-10T05:37:43;9.30;;;3.70;;
59587;SDS011;45412;54.472;18.464;2023-05-10T05:40:33;11.40;;;3.80;;
59587;SDS011;45412;54.472;18.464;2023-05-10T05:43:21;15.20;;;3.40;;
59587;SDS011;45412;54.472;18.464;2023-05-10T05:46:10;9.80;;;3.60;;
59587;SDS011;45412;54.472;18.464;2023-05-10T05:49:00;9.40;;;3.40;;
59587;SDS011;45412;54.472;18.464;2023-05-10T05:52:02;7.90;;;3.20;;
59587;SDS011;45412;54.472;18.464;2023-05-10T05:54:53;9.30;;;3.30;;
59587;SDS011;45412;54.472;18.464;2023-05-10T05:57:45;7.10;;;3.00;;
59587;SDS011;45412;54.472;18.464;2023-05-10T06:00:37;9.00;;;3.60;;
59587;SDS011;45412;54.472;18.464;2023-05-10T06:03:25;8.70;;;3.10;;
59587;SDS011;45412;54.472;18.464;2023-05-10T06:06:14;9.50;;;3.50;;
59587;SDS011;45412;54.472;18.464;2023-05-10T06:09:03;7.70;;;3.30;;
59587;SDS011;45412;54.472;18.464;2023-05-10T06:11:52;8.50;;;3.50;;
59587;SDS011;45412;54.472;18.464;2023-05-10T06:14:42;10.10;;;3.60;;
59587;SDS011;45412;54.472;18.464;2023-05-10T06:17:30;9.00;;;3.20;;
59587;SDS011;45412;54.472;18.464;2023-05-10T06:20:18;7.60;;;3.40;;
59587;SDS011;45412;54.472;18.464;2023-05-10T06:23:07;9.60;;;3.40;;
59587;SDS011;45412;54.472;18.464;2023-05-10T06:26:01;7.70;;;3.30;;
59587;SDS011;45412;54.472;18.464;2023-05-10T06:28:56;8.50;;;3.30;;
59587;SDS011;45412;54.472;18.464;2023-05-10T06:31:44;10.50;;;3.40;;
59587;SDS011;45412;54.472;18.464;2023-05-10T06:34:34;7.40;;;3.30;;
59587;SDS011;45412;54.472;18.464;2023-05-10T06:37:23;8.30;;;3.20;;
59587;SDS011;45412;54.472;18.464;2023-05-10T06:40:12;10.30;;;3.70;;
59587;SDS011;45412;54.472;18.464;2023-05-10T06:43:01;11.10;;;3.40;;
59587;SDS011;45412;54.472;18.464;2023-05-10T06:45:49;9.40;;;3.80;;
59587;SDS011;45412;54.472;18.464;2023-05-10T06:48:39;7.70;;;3.00;;
59587;SDS011;45412;54.472;18.464;2023-05-10T06:51:27;10.30;;;3.80;;
59587;SDS011;45412;54.472;18.464;2023-05-10T06:54:15;10.20;;;3.50;;
59587;SDS011;45412;54.472;18.464;2023-05-10T06:57:04;7.40;;;3.40;;
59587;SDS011;45412;54.472;18.464;2023-05-10T07:00:06;8.90;;;3.50;;
59587;SDS011;45412;54.472;18.464;2023-05-10T07:02:57;9.70;;;3.50;;
59587;SDS011;45412;54.472;18.464;2023-05-10T07:05:46;10.30;;;3.20;;
59587;SDS011;45412;54.472;18.464;2023-05-10T07:08:34;11.00;;;3.60;;
59587;SDS011;45412;54.472;18.464;2023-05-10T07:11:22;7.70;;;3.30;;
59587;SDS011;45412;54.472;18.464;2023-05-10T07:14:11;9.40;;;3.70;;
59587;SDS011;45412;54.472;18.464;2023-05-10T07:16:59;8.30;;;3.00;;
59587;SDS011;45412;54.472;18.464;2023-05-10T07:19:47;10.30;;;3.20;;
59587;SDS011;45412;54.472;18.464;2023-05-10T07:22:37;8.10;;;3.30;;
59587;SDS011;45412;54.472;18.464;2023-05-10T07:25:25;7.00;;;2.80;;
59587;SDS011;45412;54.472;18.464;2023-05-10T07:28:15;9.70;;;3.70;;
59587;SDS011;45412;54.472;18.464;2023-05-10T07:31:05;10.10;;;3.10;;
59587;SDS011;45412;54.472;18.464;2023-05-10T07:33:53;8.20;;;3.10;;
59587;SDS011;45412;54.472;18.464;2023-05-10T07:36:42;10.50;;;3.30;;
59587;SDS011;45412;54.472;18.464;2023-05-10T07:39:30;9.70;;;3.40;;
59587;SDS011;45412;54.472;18.464;2023-05-10T07:42:19;10.60;;;3.30;;
59587;SDS011;45412;54.472;18.464;2023-05-10T07:45:08;9.70;;;3.20;;
59587;SDS011;45412;54.472;18.464;2023-05-10T07:47:56;8.80;;;2.80;;
59587;SDS011;45412;54.472;18.464;2023-05-10T07:50:45;10.00;;;3.30;;
59587;SDS011;45412;54.472;18.464;2023-05-10T07:53:33;11.90;;;3.20;;
59587;SDS011;45412;54.472;18.464;2023-05-10T07:56:27;9.60;;;3.20;;
59587;SDS011;45412;54.472;18.464;2023-05-10T07:59:17;10.20;;;3.40;;
59587;SDS011;45412;54.472;18.464;2023-05-10T08:02:06;8.20;;;3.00;;
59587;SDS011;45412;54.472;18.464;2023-05-10T08:04:54;8.10;;;2.90;;
59587;SDS011;45412;54.472;18.464;2023-05-10T08:07:43;9.90;;;2.90;;
59587;SDS011;45412;54.472;18.464;2023-05-10T08:10:31;7.10;;;2.70;;
59587;SDS011;45412;54.472;18.464;2023-05-10T08:13:22;10.00;;;3.20;;
59587;SDS011;45412;54.472;18.464;2023-05-10T08:16:11;7.70;;;2.80;;
59587;SDS011;45412;54.472;18.464;2023-05-10T08:19:01;8.80;;;2.80;;
59587;SDS011;45412;54.472;18.464;2023-05-10T08:21:50;8.90;;;2.80;;
59587;SDS011;45412;54.472;18.464;2023-05-10T08:24:38;9.00;;;2.30;;
59587;SDS011;45412;54.472;18.464;2023-05-10T08:27:26;8.60;;;2.90;;
59587;SDS011;45412;54.472;18.464;2023-05-10T08:30:15;7.60;;;2.90;;
59587;SDS011;45412;54.472;18.464;2023-05-10T08:33:03;9.00;;;2.90;;
59587;SDS011;45412;54.472;18.464;2023-05-10T08:35:51;8.10;;;3.00;;
59587;SDS011;45412;54.472;18.464;2023-05-10T08:38:39;9.20;;;2.90;;
59587;SDS011;45412;54.472;18.464;2023-05-10T08:41:28;7.80;;;2.80;;
59587;SDS011;45412;54.472;18.464;2023-05-10T08:44:21;8.80;;;2.90;;
59587;SDS011;45412;54.472;18.464;2023-05-10T08:47:09;7.50;;;2.60;;
59587;SDS011;45412;54.472;18.464;2023-05-10T08:49:59;10.10;;;2.90;;
59587;SDS011;45412;54.472;18.464;2023-05-10T08:52:48;7.20;;;2.80;;
59587;SDS011;45412;54.472;18.464;2023-05-10T08:55:42;9.80;;;2.80;;
59587;SDS011;45412;54.472;18.464;2023-05-10T08:58:31;7.40;;;2.70;;
59587;SDS011;45412;54.472;18.464;2023-05-10T09:01:19;9.90;;;2.60;;
59587;SDS011;45412;54.472;18.464;2023-05-10T09:04:09;7.40;;;2.60;;
59587;SDS011;45412;54.472;18.464;2023-05-10T09:06:59;9.10;;;2.70;;
59587;SDS011;45412;54.472;18.464;2023-05-10T09:09:48;8.40;;;2.50;;
59587;SDS011;45412;54.472;18.464;2023-05-10T09:12:37;8.50;;;2.60;;
59587;SDS011;45412;54.472;18.464;2023-05-10T09:15:26;9.80;;;2.60;;
59587;SDS011;45412;54.472;18.464;2023-05-10T09:18:14;9.30;;;2.50;;
59587;SDS011;45412;54.472;18.464;2023-05-10T09:21:03;7.20;;;2.60;;
59587;SDS011;45412;54.472;18.464;2023-05-10T09:23:51;9.30;;;3.20;;
59587;SDS011;45412;54.472;18.464;2023-05-10T09:26:50;12.20;;;2.70;;
59587;SDS011;45412;54.472;18.464;2023-05-10T09:29:39;11.30;;;2.90;;
59587;SDS011;45412;54.472;18.464;2023-05-10T09:32:42;9.30;;;2.40;;
59587;SDS011;45412;54.472;18.464;2023-05-10T09:35:33;10.30;;;2.80;;
59587;SDS011;45412;54.472;18.464;2023-05-10T09:38:21;9.10;;;2.50;;
59587;SDS011;45412;54.472;18.464;2023-05-10T09:41:20;7.80;;;2.70;;
59587;SDS011;45412;54.472;18.464;2023-05-10T09:44:10;7.50;;;2.50;;
59587;SDS011;45412;54.472;18.464;2023-05-10T09:47:03;9.10;;;2.70;;
59587;SDS011;45412;54.472;18.464;2023-05-10T09:49:52;8.30;;;2.60;;
59587;SDS011;45412;54.472;18.464;2023-05-10T09:52:53;9.50;;;2.80;;
59587;SDS011;45412;54.472;18.464;2023-05-10T09:55:50;10.20;;;2.90;;
59587;SDS011;45412;54.472;18.464;2023-05-10T09:58:39;8.40;;;2.40;;
59587;SDS011;45412;54.472;18.464;2023-05-10T10:01:27;9.70;;;2.70;;
59587;SDS011;45412;54.472;18.464;2023-05-10T10:04:17;9.30;;;2.80;;
59587;SDS011;45412;54.472;18.464;2023-05-10T10:07:05;11.50;;;2.60;;
59587;SDS011;45412;54.472;18.464;2023-05-10T10:09:56;9.30;;;2.60;;
59587;SDS011;45412;54.472;18.464;2023-05-10T10:12:46;7.50;;;2.50;;
59587;SDS011;45412;54.472;18.464;2023-05-10T10:15:34;9.90;;;2.70;;
59587;SDS011;45412;54.472;18.464;2023-05-10T10:18:23;9.90;;;2.90;;
59587;SDS011;45412;54.472;18.464;2023-05-10T10:21:15;7.50;;;2.70;;
59587;SDS011;45412;54.472;18.464;2023-05-10T10:24:04;6.50;;;2.70;;
59587;SDS011;45412;54.472;18.464;2023-05-10T10:26:55;8.10;;;2.30;;
59587;SDS011;45412;54.472;18.464;2023-05-10T10:30:37;15.90;;;3.40;;
59587;SDS011;45412;54.472;18.464;2023-05-10T10:36:44;7.30;;;2.40;;
59587;SDS011;45412;54.472;18.464;2023-05-10T10:39:33;12.70;;;3.00;;
59587;SDS011;45412;54.472;18.464;2023-05-10T10:42:43;8.60;;;2.80;;
59587;SDS011;45412;54.472;18.464;2023-05-10T10:45:33;12.40;;;2.70;;
59587;SDS011;45412;54.472;18.464;2023-05-10T10:48:22;7.40;;;2.50;;
59587;SDS011;45412;54.472;18.464;2023-05-10T10:51:11;11.50;;;2.90;;
59587;SDS011;45412;54.472;18.464;2023-05-10T10:54:11;8.50;;;3.00;;
59587;SDS011;45412;54.472;18.464;2023-05-10T10:57:13;7.10;;;2.70;;
59587;SDS011;45412;54.472;18.464;2023-05-10T11:03:13;10.70;;;2.60;;
59587;SDS011;45412;54.472;18.464;2023-05-10T11:06:06;8.70;;;2.60;;
59587;SDS011;45412;54.472;18.464;2023-05-10T11:08:55;8.50;;;2.70;;
59587;SDS011;45412;54.472;18.464;2023-05-10T11:11:53;11.60;;;2.50;;
59587;SDS011;45412;54.472;18.464;2023-05-10T11:14:43;10.60;;;2.60;;
59587;SDS011;45412;54.472;18.464;2023-05-10T11:17:31;11.20;;;2.50;;
59587;SDS011;45412;54.472;18.464;2023-05-10T11:20:20;12.90;;;2.80;;
59587;SDS011;45412;54.472;18.464;2023-05-10T11:23:13;8.70;;;2.70;;
59587;SDS011;45412;54.472;18.464;2023-05-10T11:26:03;11.40;;;2.70;;
59587;SDS011;45412;54.472;18.464;2023-05-10T11:28:54;11.10;;;2.80;;
59587;SDS011;45412;54.472;18.464;2023-05-10T11:31:47;11.50;;;2.90;;
59587;SDS011;45412;54.472;18.464;2023-05-10T11:34:36;8.60;;;2.70;;
59587;SDS011;45412;54.472;18.464;2023-05-10T11:37:27;9.10;;;2.70;;
59587;SDS011;45412;54.472;18.464;2023-05-10T11:40:21;7.70;;;2.70;;
59587;SDS011;45412;54.472;18.464;2023-05-10T11:43:12;7.10;;;2.80;;
59587;SDS011;45412;54.472;18.464;2023-05-10T11:46:00;8.30;;;2.70;;
59587;SDS011;45412;54.472;18.464;2023-05-10T11:48:51;8.90;;;2.60;;
59587;SDS011;45412;54.472;18.464;2023-05-10T11:51:40;8.10;;;2.90;;
59587;SDS011;45412;54.472;18.464;2023-05-10T11:54:31;7.90;;;2.50;;
59587;SDS011;45412;54.472;18.464;2023-05-10T11:57:26;12.00;;;3.40;;
59587;SDS011;45412;54.472;18.464;2023-05-10T12:00:16;8.60;;;2.60;;
59587;SDS011;45412;54.472;18.464;2023-05-10T12:03:06;7.40;;;2.70;;
59587;SDS011;45412;54.472;18.464;2023-05-10T12:06:00;10.50;;;2.90;;
59587;SDS011;45412;54.472;18.464;2023-05-10T12:08:49;11.50;;;2.70;;
59587;SDS011;45412;54.472;18.464;2023-05-10T12:11:41;9.00;;;3.30;;
59587;SDS011;45412;54.472;18.464;2023-05-10T12:14:36;7.20;;;2.40;;
59587;SDS011;45412;54.472;18.464;2023-05-10T12:17:27;8.70;;;3.10;;
59587;SDS011;45412;54.472;18.464;2023-05-10T12:20:22;8.00;;;2.80;;
59587;SDS011;45412;54.472;18.464;2023-05-10T12:23:13;8.30;;;3.10;;
59587;SDS011;45412;54.472;18.464;2023-05-10T12:26:04;11.90;;;2.90;;
59587;SDS011;45412;54.472;18.464;2023-05-10T12:28:54;9.10;;;3.00;;
59587;SDS011;45412;54.472;18.464;2023-05-10T12:31:56;13.90;;;3.20;;
59587;SDS011;45412;54.472;18.464;2023-05-10T12:34:46;9.10;;;2.80;;
59587;SDS011;45412;54.472;18.464;2023-05-10T12:37:35;8.10;;;3.00;;
59587;SDS011;45412;54.472;18.464;2023-05-10T12:40:27;11.20;;;2.70;;
59587;SDS011;45412;54.472;18.464;2023-05-10T12:43:16;10.20;;;2.80;;
59587;SDS011;45412;54.472;18.464;2023-05-10T12:48:54;12.80;;;3.00;;
59587;SDS011;45412;54.472;18.464;2023-05-10T12:51:55;8.70;;;3.00;;
59587;SDS011;45412;54.472;18.464;2023-05-10T12:54:48;8.80;;;2.90;;
59587;SDS011;45412;54.472;18.464;2023-05-10T12:57:37;10.00;;;2.90;;
59587;SDS011;45412;54.472;18.464;2023-05-10T13:00:26;8.50;;;2.40;;
59587;SDS011;45412;54.472;18.464;2023-05-10T13:03:15;7.50;;;2.40;;
59587;SDS011;45412;54.472;18.464;2023-05-10T13:06:04;9.50;;;2.70;;
59587;SDS011;45412;54.472;18.464;2023-05-10T13:08:54;12.00;;;3.00;;
59587;SDS011;45412;54.472;18.464;2023-05-10T13:11:42;8.40;;;2.40;;
59587;SDS011;45412;54.472;18.464;2023-05-10T13:14:31;12.20;;;2.50;;
59587;SDS011;45412;54.472;18.464;2023-05-10T13:17:20;10.70;;;3.00;;
59587;SDS011;45412;54.472;18.464;2023-05-10T13:20:09;10.10;;;3.10;;
59587;SDS011;45412;54.472;18.464;2023-05-10T13:22:57;10.00;;;2.50;;
59587;SDS011;45412;54.472;18.464;2023-05-10T13:25:46;11.70;;;2.90;;
59587;SDS011;45412;54.472;18.464;2023-05-10T13:28:34;12.50;;;2.50;;
59587;SDS011;45412;54.472;18.464;2023-05-10T13:31:23;10.60;;;2.80;;
59587;SDS011;45412;54.472;18.464;2023-05-10T13:34:12;9.70;;;2.70;;
59587;SDS011;45412;54.472;18.464;2023-05-10T13:37:00;7.40;;;2.80;;
59587;SDS011;45412;54.472;18.464;2023-05-10T13:39:48;9.70;;;2.80;;
59587;SDS011;45412;54.472;18.464;2023-05-10T13:42:38;6.60;;;2.60;;
59587;SDS011;45412;54.472;18.464;2023-05-10T13:45:27;10.50;;;2.60;;
59587;SDS011;45412;54.472;18.464;2023-05-10T13:48:16;9.20;;;2.50;;
59587;SDS011;45412;54.472;18.464;2023-05-10T13:51:04;7.60;;;2.80;;
59587;SDS011;45412;54.472;18.464;2023-05-10T13:53:52;8.00;;;2.40;;
59587;SDS011;45412;54.472;18.464;2023-05-10T13:56:41;10.80;;;2.80;;
59587;SDS011;45412;54.472;18.464;2023-05-10T13:59:32;9.80;;;2.60;;
59587;SDS011;45412;54.472;18.464;2023-05-10T14:02:22;11.60;;;2.70;;
59587;SDS011;45412;54.472;18.464;2023-05-10T14:05:11;9.60;;;2.80;;
59587;SDS011;45412;54.472;18.464;2023-05-10T14:08:00;9.00;;;3.00;;
59587;SDS011;45412;54.472;18.464;2023-05-10T14:10:49;10.00;;;3.00;;
59587;SDS011;45412;54.472;18.464;2023-05-10T14:13:41;10.00;;;2.70;;
59587;SDS011;45412;54.472;18.464;2023-05-10T14:16:29;10.20;;;2.60;;
59587;SDS011;45412;54.472;18.464;2023-05-10T14:19:17;10.50;;;2.80;;
59587;SDS011;45412;54.472;18.464;2023-05-10T14:22:06;9.90;;;2.90;;
59587;SDS011;45412;54.472;18.464;2023-05-10T14:24:54;9.30;;;2.90;;
59587;SDS011;45412;54.472;18.464;2023-05-10T14:27:43;9.20;;;2.80;;
59587;SDS011;45412;54.472;18.464;2023-05-10T14:30:31;11.60;;;3.00;;
59587;SDS011;45412;54.472;18.464;2023-05-10T14:33:24;10.00;;;3.10;;
59587;SDS011;45412;54.472;18.464;2023-05-10T14:36:12;10.20;;;2.60;;
59587;SDS011;45412;54.472;18.464;2023-05-10T14:39:01;8.70;;;3.10;;
59587;SDS011;45412;54.472;18.464;2023-05-10T14:41:50;9.40;;;2.90;;
59587;SDS011;45412;54.472;18.464;2023-05-10T14:44:39;9.90;;;2.70;;
59587;SDS011;45412;54.472;18.464;2023-05-10T14:47:27;13.20;;;2.80;;
59587;SDS011;45412;54.472;18.464;2023-05-10T14:50:16;9.60;;;2.90;;
59587;SDS011;45412;54.472;18.464;2023-05-10T14:53:22;7.50;;;2.70;;
59587;SDS011;45412;54.472;18.464;2023-05-10T14:56:10;8.20;;;2.30;;
59587;SDS011;45412;54.472;18.464;2023-05-10T14:58:59;10.10;;;2.70;;
59587;SDS011;45412;54.472;18.464;2023-05-10T15:01:48;7.50;;;2.60;;
59587;SDS011;45412;54.472;18.464;2023-05-10T15:04:39;8.40;;;2.70;;
59587;SDS011;45412;54.472;18.464;2023-05-10T15:07:27;9.10;;;2.60;;
59587;SDS011;45412;54.472;18.464;2023-05-10T15:10:18;8.80;;;2.30;;
59587;SDS011;45412;54.472;18.464;2023-05-10T15:13:06;9.00;;;2.50;;
59587;SDS011;45412;54.472;18.464;2023-05-10T15:15:55;7.40;;;2.50;;
59587;SDS011;45412;54.472;18.464;2023-05-10T15:18:43;10.80;;;2.30;;
59587;SDS011;45412;54.472;18.464;2023-05-10T15:21:31;9.20;;;2.70;;
59587;SDS011;45412;54.472;18.464;2023-05-10T15:24:27;7.10;;;2.30;;
59587;SDS011;45412;54.472;18.464;2023-05-10T15:27:16;8.20;;;2.20;;
59587;SDS011;45412;54.472;18.464;2023-05-10T15:30:05;10.10;;;2.30;;
59587;SDS011;45412;54.472;18.464;2023-05-10T15:32:54;7.70;;;2.60;;
59587;SDS011;45412;54.472;18.464;2023-05-10T15:35:42;10.10;;;2.60;;
59587;SDS011;45412;54.472;18.464;2023-05-10T15:38:31;7.30;;;2.60;;
59587;SDS011;45412;54.472;18.464;2023-05-10T15:41:20;8.40;;;2.20;;
59587;SDS011;45412;54.472;18.464;2023-05-10T15:44:09;9.40;;;2.60;;
59587;SDS011;45412;54.472;18.464;2023-05-10T15:46:57;11.60;;;2.80;;
59587;SDS011;45412;54.472;18.464;2023-05-10T15:49:46;8.00;;;2.50;;
59587;SDS011;45412;54.472;18.464;2023-05-10T15:52:34;8.70;;;2.20;;
59587;SDS011;45412;54.472;18.464;2023-05-10T15:55:25;8.70;;;2.30;;
59587;SDS011;45412;54.472;18.464;2023-05-10T15:58:13;6.40;;;2.10;;
59587;SDS011;45412;54.472;18.464;2023-05-10T16:01:01;7.70;;;2.70;;
59587;SDS011;45412;54.472;18.464;2023-05-10T16:03:49;10.50;;;2.60;;
59587;SDS011;45412;54.472;18.464;2023-05-10T16:06:37;9.10;;;2.60;;
59587;SDS011;45412;54.472;18.464;2023-05-10T16:09:27;9.30;;;2.10;;
59587;SDS011;45412;54.472;18.464;2023-05-10T16:12:15;10.20;;;2.30;;
59587;SDS011;45412;54.472;18.464;2023-05-10T16:15:03;10.70;;;2.50;;
59587;SDS011;45412;54.472;18.464;2023-05-10T16:17:52;8.20;;;2.50;;
59587;SDS011;45412;54.472;18.464;2023-05-10T16:20:41;8.10;;;2.50;;
59587;SDS011;45412;54.472;18.464;2023-05-10T16:23:29;9.80;;;2.50;;
59587;SDS011;45412;54.472;18.464;2023-05-10T16:26:17;10.10;;;2.40;;
59587;SDS011;45412;54.472;18.464;2023-05-10T16:29:09;7.80;;;2.40;;
59587;SDS011;45412;54.472;18.464;2023-05-10T16:31:58;9.70;;;3.20;;
59587;SDS011;45412;54.472;18.464;2023-05-10T16:34:46;8.90;;;2.50;;
59587;SDS011;45412;54.472;18.464;2023-05-10T16:37:34;8.00;;;2.60;;
59587;SDS011;45412;54.472;18.464;2023-05-10T16:40:23;9.30;;;2.50;;
59587;SDS011;45412;54.472;18.464;2023-05-10T16:43:11;11.60;;;2.70;;
59587;SDS011;45412;54.472;18.464;2023-05-10T16:46:00;10.00;;;3.20;;
59587;SDS011;45412;54.472;18.464;2023-05-10T16:48:48;10.10;;;2.50;;
59587;SDS011;45412;54.472;18.464;2023-05-10T16:51:36;7.80;;;2.30;;
59587;SDS011;45412;54.472;18.464;2023-05-10T16:54:24;9.30;;;2.50;;
59587;SDS011;45412;54.472;18.464;2023-05-10T16:57:12;9.50;;;2.40;;
59587;SDS011;45412;54.472;18.464;2023-05-10T17:00:01;7.80;;;2.90;;
59587;SDS011;45412;54.472;18.464;2023-05-10T17:02:51;6.80;;;2.30;;
59587;SDS011;45412;54.472;18.464;2023-05-10T17:05:41;9.20;;;2.50;;
59587;SDS011;45412;54.472;18.464;2023-05-10T17:08:29;9.20;;;2.50;;
59587;SDS011;45412;54.472;18.464;2023-05-10T17:11:18;11.20;;;2.70;;
59587;SDS011;45412;54.472;18.464;2023-05-10T17:14:08;10.30;;;2.80;;
59587;SDS011;45412;54.472;18.464;2023-05-10T17:16:57;7.20;;;2.50;;